Time;durP1;ratioP1;P1;durP2;ratioP2;P2;SDS_P1;SDS_P2;PMS_P1;PMS_P2;Temp;Humidity;BMP_temperature;BMP_pressure;BME280_temperature;BME280_humidity;BME280_pressure;Samples;Min_cycle;Max_cycle;Signal;HPM_P1;HPM_P2
2023/01/08 00:01:03;;;;;;;6.25;3.20;;;;;;;16.81;64.32;100237.66;6217211;23;20004;-84
2023/01/08 00:03:28;;;;;;;5.38;3.45;;;;;;;16.81;64.48;100228.97;6215427;23;20063;-84
2023/01/08 00:05:54;;;;;;;6.80;2.90;;;;;;;16.80;64.58;100232.47;6190168;23;20013;-83
2023/01/08 00:08:19;;;;;;;6.15;2.92;;;;;;;16.81;64.60;100234.16;6216889;23;20422;-84
2023/01/08 00:10:44;;;;;;;6.20;3.33;;;;;;;16.79;64.35;100226.38;6216601;23;20001;-84
2023/01/08 00:13:10;;;;;;;4.70;3.03;;;;;;;16.79;64.34;100234.19;6190259;23;20012;-84
2023/01/08 00:15:35;;;;;;;5.80;3.05;;;;;;;16.79;64.45;100218.59;6217004;23;20005;-84
2023/01/08 00:18:01;;;;;;;5.93;3.20;;;;;;;16.80;64.32;100222.06;6215405;23;20054;-84
2023/01/08 00:20:27;;;;;;;5.40;2.67;;;;;;;16.79;64.32;100230.72;6190316;23;20016;-85
2023/01/08 00:22:52;;;;;;;5.15;2.95;;;;;;;16.79;63.80;100226.38;6216775;23;20028;-84
2023/01/08 00:25:18;;;;;;;5.00;2.80;;;;;;;16.79;64.06;100222.94;6215799;23;20555;-83
2023/01/08 00:27:45;;;;;;;6.03;2.95;;;;;;;16.79;64.02;100225.53;6215212;23;20012;-85
2023/01/08 00:30:11;;;;;;;6.53;2.88;;;;;;;16.78;64.22;100222.06;6216805;23;20074;-84
2023/01/08 00:32:36;;;;;;;5.63;3.00;;;;;;;16.79;64.21;100217.75;6216448;23;19997;-85
2023/01/08 00:35:02;;;;;;;5.72;2.53;;;;;;;16.78;64.04;100213.41;6214971;23;20015;-84
2023/01/08 00:37:28;;;;;;;4.95;2.65;;;;;;;16.77;64.10;100209.97;6190055;23;20083;-85
2023/01/08 00:39:54;;;;;;;6.38;2.83;;;;;;;16.77;63.87;100209.13;6190280;23;20051;-84
2023/01/08 00:42:19;;;;;;;4.32;2.50;;;;;;;16.78;64.02;100213.41;6189986;23;20000;-84
2023/01/08 00:44:45;;;;;;;5.57;2.63;;;;;;;16.78;64.01;100208.22;6215117;23;20058;-85
2023/01/08 00:47:10;;;;;;;4.82;2.50;;;;;;;16.78;63.69;100200.41;6190654;23;20004;-85
2023/01/08 00:49:36;;;;;;;5.20;2.60;;;;;;;16.76;64.27;100190.03;6190266;23;20020;-84
2023/01/08 00:52:01;;;;;;;5.75;3.10;;;;;;;16.76;64.05;100192.63;6214717;23;20020;-84
2023/01/08 00:54:26;;;;;;;5.57;2.67;;;;;;;16.75;63.80;100184.91;6165297;23;20004;-84
2023/01/08 00:56:54;;;;;;;5.25;2.58;;;;;;;16.75;63.88;100180.53;6190193;23;20005;-84
2023/01/08 00:59:19;;;;;;;5.78;3.03;;;;;;;16.76;63.98;100176.19;6215087;23;20417;-84
2023/01/08 01:01:45;;;;;;;5.32;2.80;;;;;;;16.75;63.74;100174.50;6216626;23;20003;-84
2023/01/08 01:04:10;;;;;;;5.07;2.47;;;;;;;16.75;63.60;100171.91;6189895;23;20022;-84
2023/01/08 01:06:36;;;;;;;4.78;2.25;;;;;;;16.74;63.63;100173.63;6189809;23;20012;-83
2023/01/08 01:09:02;;;;;;;5.28;2.50;;;;;;;16.73;63.68;100171.91;6216752;23;20011;-85
2023/01/08 01:11:27;;;;;;;6.00;2.58;;;;;;;16.74;63.86;100176.22;6189832;23;20013;-83
2023/01/08 01:13:54;;;;;;;5.13;2.17;;;;;;;16.74;63.45;100167.56;6216675;23;20031;-84
2023/01/08 01:16:20;;;;;;;5.20;2.35;;;;;;;16.73;63.62;100171.91;6214970;23;20008;-85
2023/01/08 01:18:46;;;;;;;5.90;2.72;;;;;;;16.75;63.17;100174.50;6216110;23;20011;-83
2023/01/08 01:21:24;;;;;;;3.72;2.05;;;;;;;16.74;63.61;100170.16;6165175;23;20040;-83
2023/01/08 01:23:53;;;;;;;5.70;2.70;;;;;;;16.73;63.46;100171.91;6189621;23;20046;-84
2023/01/08 01:26:21;;;;;;;4.38;2.45;;;;;;;16.73;64.06;100165.88;6216267;23;20009;-84
2023/01/08 01:28:48;;;;;;;6.63;2.40;;;;;;;16.73;63.54;100160.69;6189544;23;20000;-85
2023/01/08 01:31:14;;;;;;;5.53;2.10;;;;;;;16.73;63.41;100166.72;6216381;23;20032;-84
2023/01/08 01:33:40;;;;;;;7.10;2.30;;;;;;;16.73;63.41;100158.06;6189897;23;20425;-84
2023/01/08 01:36:06;;;;;;;4.25;2.20;;;;;;;16.72;63.18;100156.34;6189832;23;20019;-84
2023/01/08 01:38:32;;;;;;;5.82;2.33;;;;;;;16.71;63.50;100158.09;6216178;23;20008;-84
2023/01/08 01:40:58;;;;;;;6.63;2.28;;;;;;;16.72;63.46;100169.34;6216141;23;20000;-84
2023/01/08 01:43:37;;;;;;;5.63;2.20;;;;;;;16.71;63.27;100167.63;6189519;23;20004;-84
2023/01/08 01:46:12;;;;;;;4.05;2.03;;;;;;;16.71;63.48;100168.47;6215543;23;20075;-85
2023/01/08 01:48:37;;;;;;;3.97;2.10;;;;;;;16.72;63.20;100167.59;6191831;23;20337;-83
2023/01/08 01:51:02;;;;;;;4.88;2.10;;;;;;;16.71;63.31;100168.47;6216558;23;20015;-83
2023/01/08 01:53:33;;;;;;;4.93;2.17;;;;;;;16.71;63.14;100168.47;6216449;23;20342;-85
2023/01/08 01:56:01;;;;;;;4.57;2.10;;;;;;;16.70;63.37;100169.38;6191516;23;20083;-83
2023/01/08 01:58:29;;;;;;;3.75;1.88;;;;;;;16.70;63.38;100171.09;6191458;23;19997;-85
2023/01/08 02:00:56;;;;;;;3.72;1.95;;;;;;;16.70;63.46;100171.97;6216629;23;20008;-85
2023/01/08 02:03:26;;;;;;;4.65;2.13;;;;;;;16.70;63.48;100171.97;6217971;23;20009;-85
2023/01/08 02:06:06;;;;;;;4.15;1.85;;;;;;;16.70;63.15;100168.50;6191271;23;20005;-84
2023/01/08 02:08:31;;;;;;;4.68;1.98;;;;;;;16.70;63.32;100163.31;6216589;23;20055;-83
2023/01/08 02:11:01;;;;;;;4.30;1.95;;;;;;;16.69;62.81;100165.06;6216561;23;19996;-84
2023/01/08 02:13:33;;;;;;;3.88;2.08;;;;;;;16.69;63.58;100164.19;6216436;23;20024;-84
2023/01/08 02:16:23;;;;;;;3.47;1.88;;;;;;;16.69;63.38;100159.84;6218064;23;20012;-84
2023/01/08 02:18:58;;;;;;;5.05;1.83;;;;;;;16.69;63.26;100166.81;6191122;23;20013;-83
2023/01/08 02:21:39;;;;;;;3.33;1.63;;;;;;;16.68;63.10;100165.94;6217569;23;20005;-83
2023/01/08 02:24:29;;;;;;;2.70;1.63;;;;;;;16.67;63.20;100156.44;6216136;23;20425;-84
2023/01/08 02:26:58;;;;;;;5.50;2.20;;;;;;;16.66;62.88;100155.56;6217678;23;20421;-84
2023/01/08 02:29:27;;;;;;;2.95;1.60;;;;;;;16.67;63.33;100162.47;6191105;23;20086;-85
2023/01/08 02:31:53;;;;;;;3.90;2.10;;;;;;;16.67;63.13;100164.22;6191493;23;20019;-80
2023/01/08 02:34:18;;;;;;;4.40;1.58;;;;;;;16.68;63.21;100158.16;6191032;23;20420;-84
2023/01/08 02:36:46;;;;;;;2.28;1.50;;;;;;;16.66;63.17;100155.56;6216334;23;20015;-84
2023/01/08 02:39:35;;;;;;;4.35;1.90;;;;;;;16.66;62.67;100167.72;6216175;23;20432;-83
2023/01/08 02:42:15;;;;;;;3.97;1.83;;;;;;;16.66;63.39;100165.13;6198909;23;20036;-85
2023/01/08 02:45:05;;;;;;;3.45;1.77;;;;;;;16.66;63.16;100165.97;6217473;23;20432;-84
2023/01/08 02:47:36;;;;;;;5.03;2.15;;;;;;;16.65;62.88;100159.03;6191086;23;20008;-84
2023/01/08 02:50:32;;;;;;;3.45;1.63;;;;;;;16.65;63.17;100148.66;6190855;23;20012;-84
2023/01/08 02:53:09;;;;;;;3.85;1.70;;;;;;;16.64;62.46;100154.75;6190834;23;20349;-84
2023/01/08 02:55:37;;;;;;;3.63;1.67;;;;;;;16.64;62.73;100153.88;6217848;23;20027;-84
2023/01/08 02:58:04;;;;;;;3.95;1.98;;;;;;;16.64;62.97;100146.94;6190645;23;20075;-84
2023/01/08 03:00:31;;;;;;;3.45;1.85;;;;;;;16.64;63.17;100149.53;6218309;23;20063;-80
2023/01/08 03:03:10;;;;;;;3.08;1.70;;;;;;;16.64;63.01;100149.53;6215896;23;20068;-79
2023/01/08 03:05:39;;;;;;;3.97;1.60;;;;;;;16.64;62.95;100149.53;6217257;23;20005;-83
2023/01/08 03:08:05;;;;;;;4.57;2.00;;;;;;;16.65;63.23;100159.03;6217477;23;20487;-84
2023/01/08 03:10:31;;;;;;;3.33;1.70;;;;;;;16.64;62.86;100151.28;6215840;23;20096;-83
2023/01/08 03:13:05;;;;;;;3.17;1.70;;;;;;;16.64;63.06;100157.34;6190630;23;20078;-84
2023/01/08 03:15:37;;;;;;;3.05;1.50;;;;;;;16.64;62.64;100162.53;6190705;23;20066;-76
2023/01/08 03:18:10;;;;;;;3.45;1.70;;;;;;;16.63;62.96;100153.00;6217089;23;20005;-75
2023/01/08 03:20:37;;;;;;;3.42;1.58;;;;;;;16.63;62.69;100145.22;6190741;23;20016;-77
2023/01/08 03:23:07;;;;;;;2.97;1.55;;;;;;;16.64;62.50;100156.50;6216959;23;20004;-77
2023/01/08 03:25:34;;;;;;;2.65;1.50;;;;;;;16.63;62.90;100154.75;6190406;23;20417;-77
2023/01/08 03:28:07;;;;;;;6.35;1.60;;;;;;;16.62;62.89;100151.31;6215806;23;20030;-77
2023/01/08 03:30:34;;;;;;;;;;;;;;;16.62;62.93;100150.47;6217298;23;20006;-77
2023/01/08 03:33:01;;;;;;;3.08;1.48;;;;;;;16.62;62.83;100148.72;6216839;23;19904;-76
2023/01/08 03:35:28;;;;;;;2.75;1.38;;;;;;;16.62;62.83;100143.50;6191014;23;20058;-76
2023/01/08 03:37:59;;;;;;;2.67;1.33;;;;;;;16.62;63.13;100143.50;6216894;23;20123;-77
2023/01/08 03:40:38;;;;;;;2.88;1.60;;;;;;;16.61;62.89;100139.22;6217002;23;20008;-76
2023/01/08 03:43:03;;;;;;;2.67;1.45;;;;;;;16.62;63.00;100147.84;6190181;23;20011;-76
2023/01/08 03:45:31;;;;;;;2.25;1.33;;;;;;;16.61;62.66;100144.41;6190980;23;20009;-76
2023/01/08 03:47:58;;;;;;;2.97;1.40;;;;;;;16.62;62.64;100140.06;6216919;23;20436;-76
2023/01/08 03:50:28;;;;;;;2.17;1.40;;;;;;;16.61;62.92;100138.34;6165504;23;20456;-77
2023/01/08 03:52:53;;;;;;;2.35;1.20;;;;;;;16.60;62.58;100136.63;6190226;23;20345;-77
2023/01/08 03:55:19;;;;;;;2.88;1.60;;;;;;;16.61;62.82;100133.13;6215685;23;20091;-77
2023/01/08 03:57:44;;;;;;;3.47;1.40;;;;;;;16.60;62.78;100131.44;6215302;23;20008;-76
2023/01/08 04:00:10;;;;;;;2.85;1.40;;;;;;;16.60;62.69;100127.09;6217104;23;20078;-76
2023/01/08 04:02:36;;;;;;;2.90;1.65;;;;;;;16.59;63.02;100128.00;6215186;23;20004;-76
2023/01/08 04:05:01;;;;;;;2.97;1.33;;;;;;;16.59;62.59;100127.13;6215557;23;20011;-76
2023/01/08 04:07:26;;;;;;;2.58;1.50;;;;;;;16.60;62.56;100128.84;6190087;23;20013;-77
2023/01/08 04:09:52;;;;;;;3.25;1.33;;;;;;;16.59;62.53;100125.41;6190103;23;20004;-76
2023/01/08 04:12:17;;;;;;;2.65;1.40;;;;;;;16.59;62.65;100125.41;6215030;23;20005;-77
2023/01/08 04:14:42;;;;;;;3.40;1.52;;;;;;;16.59;62.70;100125.41;6216030;23;20004;-77
2023/01/08 04:17:12;;;;;;;2.28;1.25;;;;;;;16.58;62.46;100120.22;6216670;23;20012;-77
2023/01/08 04:19:38;;;;;;;3.50;1.60;;;;;;;16.58;62.55;100128.84;6215268;23;20012;-77
2023/01/08 04:22:03;;;;;;;2.08;1.10;;;;;;;16.57;62.38;100123.69;6215167;23;20090;-75
2023/01/08 04:24:28;;;;;;;2.45;1.38;;;;;;;16.59;62.91;100127.13;6215029;23;20011;-77
2023/01/08 04:26:54;;;;;;;1.80;1.10;;;;;;;16.57;62.42;100116.78;6215152;23;20433;-76
2023/01/08 04:29:19;;;;;;;2.65;1.40;;;;;;;16.57;62.26;100123.69;6190210;23;20079;-76
2023/01/08 04:31:44;;;;;;;2.55;1.48;;;;;;;16.57;62.51;100123.69;6189906;23;20009;-76
2023/01/08 04:34:10;;;;;;;3.08;1.27;;;;;;;16.56;62.32;100124.56;6189862;23;20008;-76
2023/01/08 04:36:36;;;;;;;2.53;1.20;;;;;;;16.55;62.15;100126.31;6190053;23;20016;-76
2023/01/08 04:39:01;;;;;;;3.42;1.30;;;;;;;16.55;62.37;100128.94;6189768;23;20062;-77
2023/01/08 04:41:26;;;;;;;3.10;1.17;;;;;;;16.55;62.01;100123.72;6215756;23;20031;-76
2023/01/08 04:43:52;;;;;;;2.65;1.42;;;;;;;16.55;61.98;100120.25;6215016;23;20370;-76
2023/01/08 04:46:17;;;;;;;2.88;1.30;;;;;;;16.55;62.62;100121.13;6189741;23;20449;-76
2023/01/08 04:48:43;;;;;;;3.03;1.30;;;;;;;16.54;62.57;100109.00;6214909;23;20008;-77
2023/01/08 04:51:11;;;;;;;3.75;1.40;;;;;;;16.54;62.84;100118.56;6190285;23;20409;-76
2023/01/08 04:53:39;;;;;;;2.42;1.13;;;;;;;16.55;62.24;100112.47;6214926;23;20027;-77
2023/01/08 04:56:07;;;;;;;2.53;1.27;;;;;;;16.54;62.32;100108.16;6165251;23;20035;-77
2023/01/08 04:58:34;;;;;;;3.50;1.30;;;;;;;16.53;62.11;100109.06;6214933;23;20012;-76
2023/01/08 05:01:00;;;;;;;2.30;1.13;;;;;;;16.53;62.62;100107.31;6189494;23;20047;-77
2023/01/08 05:03:25;;;;;;;5.05;1.40;;;;;;;16.53;62.32;100107.31;6189774;23;20019;-76
2023/01/08 05:05:50;;;;;;;3.00;1.30;;;;;;;16.54;62.59;100105.56;6215169;23;20008;-77
2023/01/08 05:08:16;;;;;;;3.15;1.45;;;;;;;16.54;62.51;100110.75;6164677;23;20019;-76
2023/01/08 05:10:41;;;;;;;2.60;1.30;;;;;;;16.54;62.58;100121.16;6189495;23;20012;-77
2023/01/08 05:13:07;;;;;;;3.40;1.08;;;;;;;16.54;62.47;100109.00;6214904;23;20040;-77
2023/01/08 05:15:32;;;;;;;2.63;1.10;;;;;;;16.53;62.77;100107.31;6215050;23;20380;-77
2023/01/08 05:18:03;;;;;;;3.15;1.35;;;;;;;16.55;62.66;100099.47;6214651;23;20425;-77
2023/01/08 05:20:28;;;;;;;3.33;1.08;;;;;;;16.54;62.56;100098.63;6216220;23;20008;-76
2023/01/08 05:22:54;;;;;;;3.15;1.35;;;;;;;16.54;62.66;100097.78;6214836;23;20031;-78
2023/01/08 05:25:19;;;;;;;2.22;1.00;;;;;;;16.54;62.56;100101.22;6216338;23;20441;-76
2023/01/08 05:27:45;;;;;;;2.25;1.15;;;;;;;16.54;62.75;100093.44;6216245;23;20012;-76
2023/01/08 05:30:11;;;;;;;2.38;1.10;;;;;;;16.54;62.72;100097.78;6214714;23;20426;-76
2023/01/08 05:32:37;;;;;;;3.10;1.00;;;;;;;16.53;62.39;100091.72;6189619;23;20385;-77
2023/01/08 05:35:02;;;;;;;2.35;1.17;;;;;;;16.54;62.49;100096.03;6189569;23;20096;-77
2023/01/08 05:37:28;;;;;;;1.30;0.90;;;;;;;16.54;62.38;100093.44;6215140;23;20099;-77
2023/01/08 05:39:53;;;;;;;2.80;1.25;;;;;;;16.54;62.54;100092.56;6189578;23;20015;-77
2023/01/08 05:42:18;;;;;;;2.08;1.10;;;;;;;16.54;62.70;100098.63;6216083;23;20055;-76
2023/01/08 05:44:44;;;;;;;2.53;1.00;;;;;;;16.55;62.63;100099.47;6189487;23;20017;-77
2023/01/08 05:47:09;;;;;;;2.13;1.10;;;;;;;16.55;62.46;100099.47;6189464;23;20039;-77
2023/01/08 05:49:34;;;;;;;2.58;1.27;;;;;;;16.54;62.63;100101.22;6189609;23;20009;-77
2023/01/08 05:52:00;;;;;;;1.85;0.80;;;;;;;16.54;62.73;100100.38;6189068;23;20104;-77
2023/01/08 05:54:25;;;;;;;1.90;0.95;;;;;;;16.55;62.39;100102.06;6214288;23;20005;-77
2023/01/08 05:56:50;;;;;;;3.42;0.90;;;;;;;16.54;62.54;100101.22;6189317;23;20019;-76
2023/01/08 05:59:16;;;;;;;1.55;0.70;;;;;;;16.53;62.71;100102.13;6214652;23;20059;-77
2023/01/08 06:01:41;;;;;;;2.00;0.80;;;;;;;16.55;62.56;100107.25;6189343;23;20330;-77
2023/01/08 06:04:09;;;;;;;2.20;0.80;;;;;;;16.55;62.61;100108.16;6214345;23;20005;-77
2023/01/08 06:06:35;;;;;;;3.65;1.10;;;;;;;16.55;62.69;100102.06;6190018;23;20087;-76
2023/01/08 06:09:00;;;;;;;2.30;0.95;;;;;;;16.55;62.57;100108.16;6214550;23;20032;-77
2023/01/08 06:11:26;;;;;;;2.58;1.00;;;;;;;16.55;62.44;100102.94;6214311;23;20011;-77
2023/01/08 06:13:51;;;;;;;2.17;1.00;;;;;;;16.56;62.64;100114.19;6214248;23;20008;-77
2023/01/08 06:16:16;;;;;;;1.98;0.80;;;;;;;16.54;62.66;100103.81;6214431;23;20005;-76
2023/01/08 06:18:42;;;;;;;2.00;0.93;;;;;;;16.55;62.45;100109.84;6189142;23;20024;-77
2023/01/08 06:21:07;;;;;;;2.13;1.02;;;;;;;16.54;62.68;100102.97;6215757;23;20045;-77
2023/01/08 06:23:33;;;;;;;2.33;0.93;;;;;;;16.55;62.69;100107.25;6214253;23;20444;-77
2023/01/08 06:26:00;;;;;;;2.67;0.80;;;;;;;16.54;62.64;100098.63;6189129;23;20008;-76
2023/01/08 06:28:25;;;;;;;1.52;0.90;;;;;;;16.54;62.61;100096.03;6214205;23;20009;-77
2023/01/08 06:30:51;;;;;;;3.90;1.10;;;;;;;16.55;62.88;100086.47;6215705;23;20313;-77
2023/01/08 06:33:17;;;;;;;1.98;0.93;;;;;;;16.55;62.67;100091.69;6215879;23;20008;-77
2023/01/08 06:35:43;;;;;;;1.92;1.00;;;;;;;16.54;62.66;100093.44;6190883;23;20066;-77
2023/01/08 06:38:10;;;;;;;2.70;1.05;;;;;;;16.54;62.80;100093.44;6190787;23;20020;-77
2023/01/08 06:40:36;;;;;;;2.70;1.00;;;;;;;16.55;62.71;100091.69;6215999;23;20016;-77
2023/01/08 06:43:02;;;;;;;2.13;0.90;;;;;;;16.55;62.61;100089.97;6216082;23;20337;-76
2023/01/08 06:45:28;;;;;;;2.00;0.90;;;;;;;16.55;62.64;100084.78;6190806;23;20009;-77
2023/01/08 06:47:54;;;;;;;2.03;0.90;;;;;;;16.55;63.08;100092.56;6190905;23;20003;-78
2023/01/08 06:50:19;;;;;;;1.73;1.00;;;;;;;16.55;62.87;100089.97;6190936;23;20104;-76
2023/01/08 06:52:52;;;;;;;3.33;1.35;;;;;;;16.56;62.99;100088.22;6215463;23;20319;-76
2023/01/08 06:55:18;;;;;;;;;;;;;;;16.55;63.00;100092.56;6191613;23;20016;-78
2023/01/08 06:57:43;;;;;;;15.25;5.20;;;;;;;16.59;62.77;100089.03;6217445;23;19904;-77
2023/01/08 07:00:09;;;;;;;19.60;6.90;;;;;;;16.58;62.96;100095.09;6190949;23;20011;-77
2023/01/08 07:02:35;;;;;;;17.98;7.13;;;;;;;16.57;62.94;100087.31;6191277;23;20004;-90
2023/01/08 07:05:00;;;;;;;19.45;6.57;;;;;;;16.56;62.83;100085.63;6216872;23;20036;-83
2023/01/08 07:07:25;;;;;;;26.17;6.72;;;;;;;16.57;62.75;100087.31;6216023;23;20004;-78
2023/01/08 07:09:51;;;;;;;16.02;6.68;;;;;;;16.56;62.69;100086.47;6216860;23;20036;-89
2023/01/08 07:12:16;;;;;;;19.92;6.45;;;;;;;16.56;62.93;100083.03;6216899;23;20430;-88
2023/01/08 07:14:41;;;;;;;15.90;6.18;;;;;;;16.56;62.65;100090.81;6192119;23;20028;-88
2023/01/08 07:17:07;;;;;;;15.05;6.43;;;;;;;16.55;62.72;100073.50;6218458;23;20005;-89
2023/01/08 07:19:33;;;;;;;16.58;6.53;;;;;;;16.55;62.74;100084.78;6191898;23;20447;-89
2023/01/08 07:21:58;;;;;;;13.65;5.85;;;;;;;16.55;62.74;100074.38;6216954;23;20333;-89
2023/01/08 07:24:23;;;;;;;12.95;5.93;;;;;;;16.55;62.75;100076.97;6216731;23;20086;-89
2023/01/08 07:26:49;;;;;;;12.50;5.65;;;;;;;16.54;62.63;100075.25;6218197;23;20062;-87
2023/01/08 07:29:14;;;;;;;15.27;5.63;;;;;;;16.55;62.96;100069.19;6191775;23;20008;-89
2023/01/08 07:31:40;;;;;;;14.98;6.50;;;;;;;16.54;62.72;100064.84;6195233;23;20009;-84
2023/01/08 07:34:05;;;;;;;15.75;5.78;;;;;;;16.55;62.67;100064.00;6192023;23;20455;-87
2023/01/08 07:36:31;;;;;;;13.68;5.60;;;;;;;16.55;62.70;100066.59;6191527;23;20012;-89
2023/01/08 07:38:56;;;;;;;10.82;5.10;;;;;;;16.56;62.94;100064.84;6191850;23;20004;-89
2023/01/08 07:41:21;;;;;;;12.95;5.40;;;;;;;16.55;62.70;100063.09;6191150;23;20038;-88
2023/01/08 07:43:47;;;;;;;10.57;5.50;;;;;;;16.55;62.71;100064.00;6191101;23;20008;-87
2023/01/08 07:46:13;;;;;;;12.75;5.90;;;;;;;16.55;62.59;100057.91;6191525;23;20005;-88
2023/01/08 07:48:38;;;;;;;10.43;4.95;;;;;;;16.55;62.85;100060.50;6216352;23;20043;-89
2023/01/08 07:51:07;;;;;;;11.93;5.32;;;;;;;16.54;62.59;100058.81;6191859;23;20013;-88
2023/01/08 07:53:33;;;;;;;12.77;5.10;;;;;;;16.54;62.45;100064.84;6220756;23;20062;-87
2023/01/08 07:56:00;;;;;;;10.23;5.32;;;;;;;16.55;62.80;100073.50;6201360;23;20004;-88
2023/01/08 07:58:26;;;;;;;12.52;5.25;;;;;;;16.54;62.56;100058.81;6216574;23;20046;-85
2023/01/08 08:00:51;;;;;;;12.10;4.93;;;;;;;16.54;62.32;100064.84;6216084;23;20410;-88
2023/01/08 08:03:17;;;;;;;11.65;5.20;;;;;;;16.53;62.42;100063.16;6168405;23;20054;-81
2023/01/08 08:05:42;;;;;;;12.63;5.22;;;;;;;16.54;62.74;100057.06;6168244;23;20004;-87
2023/01/08 08:08:10;;;;;;;10.80;4.78;;;;;;;16.54;62.55;100059.66;6216341;23;20433;-84
2023/01/08 08:10:36;;;;;;;11.35;4.80;;;;;;;16.53;62.76;100055.38;6217902;23;20004;-88
2023/01/08 08:13:01;;;;;;;13.40;4.90;;;;;;;16.55;62.65;100051.00;6192267;23;20005;-83
2023/01/08 08:15:27;;;;;;;10.02;4.15;;;;;;;16.64;62.11;100048.22;6217652;23;20429;-88
2023/01/08 08:17:52;;;;;;;15.13;5.05;;;;;;;16.72;62.32;100044.63;6215846;23;20101;-85
2023/01/08 08:20:17;;;;;;;11.15;4.68;;;;;;;16.74;62.35;100043.72;6216013;23;20036;-85
2023/01/08 08:22:43;;;;;;;10.65;4.70;;;;;;;16.78;62.06;100040.19;6190924;23;20005;-84
2023/01/08 08:25:09;;;;;;;9.82;4.80;;;;;;;16.80;62.50;100033.25;6165440;23;20005;-86
2023/01/08 08:27:34;;;;;;;9.90;4.68;;;;;;;16.81;62.34;100036.69;6190572;23;20429;-86
2023/01/08 08:30:00;;;;;;;11.90;5.00;;;;;;;16.82;62.13;100031.47;6216697;23;20001;-76
2023/01/08 08:32:25;;;;;;;11.05;4.20;;;;;;;16.88;62.24;100030.50;6189767;23;20058;-77
2023/01/08 08:34:51;;;;;;;11.32;4.00;;;;;;;16.92;62.32;100029.56;6214952;23;20005;-75
2023/01/08 08:37:16;;;;;;;9.50;3.92;;;;;;;16.94;61.85;100037.31;6189830;23;20417;-75
2023/01/08 08:39:42;;;;;;;19.40;6.78;;;;;;;16.92;62.20;100039.09;6216266;23;20419;-76
2023/01/08 08:42:10;;;;;;;23.67;7.28;;;;;;;16.90;62.27;100033.94;6214924;23;20110;-75
2023/01/08 08:44:35;;;;;;;18.33;5.65;;;;;;;16.91;61.90;100035.63;6189718;23;20421;-76
2023/01/08 08:47:01;;;;;;;16.88;6.15;;;;;;;16.92;62.04;100039.97;6214735;23;20004;-76
2023/01/08 08:49:26;;;;;;;13.43;5.93;;;;;;;16.91;62.15;100029.59;6214746;23;20429;-76
2023/01/08 08:51:52;;;;;;;14.68;5.25;;;;;;;16.95;61.75;100034.69;6214419;23;20028;-76
2023/01/08 08:54:17;;;;;;;13.43;4.97;;;;;;;17.10;61.50;100030.09;6164786;23;20008;-76
2023/01/08 08:56:42;;;;;;;12.70;5.13;;;;;;;17.04;61.81;100031.91;6216623;23;20083;-75
2023/01/08 08:59:11;;;;;;;15.15;5.07;;;;;;;17.06;62.40;100026.69;6189411;23;20009;-74
2023/01/08 09:01:37;;;;;;;11.38;5.05;;;;;;;17.11;61.83;100026.59;6214421;23;20015;-77
2023/01/08 09:04:02;;;;;;;10.68;4.32;;;;;;;17.11;61.89;100030.03;6189447;23;20493;-75
2023/01/08 09:06:28;;;;;;;13.13;4.78;;;;;;;17.10;61.55;100015.34;6164592;23;20087;-76
2023/01/08 09:08:53;;;;;;;8.55;3.97;;;;;;;17.06;61.97;100019.72;6164436;23;20020;-76
2023/01/08 09:11:20;;;;;;;11.05;4.60;;;;;;;17.05;61.57;100020.63;6214638;23;20422;-75
2023/01/08 09:13:45;;;;;;;8.88;4.05;;;;;;;17.10;62.08;100017.94;6214260;23;20087;-76
2023/01/08 09:16:10;;;;;;;10.93;3.92;;;;;;;17.18;62.01;100012.56;6189366;23;20036;-75
2023/01/08 09:18:36;;;;;;;9.45;4.10;;;;;;;17.12;62.00;100005.75;6214283;23;20012;-76
2023/01/08 09:21:04;;;;;;;8.63;4.15;;;;;;;17.09;61.60;100002.38;6189296;23;20422;-76
2023/01/08 09:23:30;;;;;;;11.50;4.30;;;;;;;17.07;62.36;100015.38;6189631;23;20013;-76
2023/01/08 09:26:00;;;;;;;8.60;3.60;;;;;;;17.05;61.90;100009.38;6214239;23;20380;-77
2023/01/08 09:28:26;;;;;;;10.02;3.97;;;;;;;17.05;61.59;100012.84;6215770;23;20004;-75
2023/01/08 09:30:51;;;;;;;9.05;3.80;;;;;;;17.04;61.93;100010.25;6214091;23;20016;-77
2023/01/08 09:33:17;;;;;;;6.95;3.50;;;;;;;17.03;61.78;100000.75;6215722;23;20073;-76
2023/01/08 09:35:43;;;;;;;13.10;4.38;;;;;;;17.04;61.71;99997.25;6189241;23;20489;-76
2023/01/08 09:38:08;;;;;;;8.38;3.25;;;;;;;17.02;61.69;99994.69;6214428;23;20437;-75
2023/01/08 09:40:40;;;;;;;6.70;3.22;;;;;;;17.03;61.44;100003.38;6189471;23;20008;-83
2023/01/08 09:43:10;;;;;;;8.95;3.55;;;;;;;17.03;60.99;99999.00;6215794;23;20059;-84
2023/01/08 09:45:38;;;;;;;6.90;3.50;;;;;;;17.04;61.35;100002.47;6215858;23;20012;-84
2023/01/08 09:48:11;;;;;;;7.88;3.60;;;;;;;17.04;61.31;99999.88;6189258;23;20429;-84
2023/01/08 09:50:37;;;;;;;10.07;3.28;;;;;;;17.04;61.29;99999.88;6189368;23;20016;-83
2023/01/08 09:53:02;;;;;;;6.20;2.97;;;;;;;17.05;61.29;99992.03;6214185;23;20327;-84
2023/01/08 09:55:32;;;;;;;10.40;3.30;;;;;;;17.07;61.26;99994.59;6189191;23;20072;-85
2023/01/08 09:57:58;;;;;;;6.13;3.05;;;;;;;17.05;61.31;99999.84;6216082;23;20004;-84
2023/01/08 10:00:28;;;;;;;5.55;2.85;;;;;;;17.06;61.31;100000.69;6189382;23;20384;-84
2023/01/08 10:02:54;;;;;;;6.55;3.10;;;;;;;17.04;61.50;99992.91;6189097;23;19996;-83
2023/01/08 10:05:20;;;;;;;6.43;3.30;;;;;;;17.03;61.05;99991.22;6189160;23;20004;-83
2023/01/08 10:07:46;;;;;;;5.20;2.67;;;;;;;17.03;61.53;99986.03;6217416;23;20083;-82
2023/01/08 10:10:20;;;;;;;6.70;2.72;;;;;;;17.06;61.53;99995.50;6217694;23;20074;-83
2023/01/08 10:12:48;;;;;;;6.53;2.72;;;;;;;17.07;61.01;100002.38;6215978;23;20460;-84
2023/01/08 10:15:18;;;;;;;7.50;2.78;;;;;;;17.07;61.40;99992.00;6191118;23;20016;-83
2023/01/08 10:18:05;;;;;;;6.90;2.67;;;;;;;17.09;60.88;99981.56;6190939;23;20333;-83
2023/01/08 10:20:31;;;;;;;5.28;2.65;;;;;;;17.08;61.15;99977.28;6191232;23;20011;-82
2023/01/08 10:23:08;;;;;;;6.20;2.47;;;;;;;17.08;61.36;99979.88;6191051;23;20001;-81
2023/01/08 10:25:47;;;;;;;7.72;2.75;;;;;;;17.09;61.24;99976.38;6191586;23;20004;-84
2023/01/08 10:28:19;;;;;;;6.43;3.10;;;;;;;17.08;61.48;99972.91;6217579;23;20005;-84
2023/01/08 10:30:45;;;;;;;5.47;2.85;;;;;;;17.09;61.11;99965.97;6190896;23;20055;-84
2023/01/08 10:33:37;;;;;;;5.50;2.40;;;;;;;17.09;61.15;99976.38;6217615;23;20495;-83
2023/01/08 10:36:07;;;;;;;6.00;2.55;;;;;;;17.10;61.39;99973.75;6190869;23;20455;-84
2023/01/08 10:38:36;;;;;;;5.53;2.47;;;;;;;17.10;61.17;99965.09;6215661;23;20008;-83
2023/01/08 10:41:11;;;;;;;4.95;2.10;;;;;;;17.11;61.11;99961.59;6190790;23;20006;-83
2023/01/08 10:43:52;;;;;;;5.88;2.17;;;;;;;17.10;60.75;99967.69;6190702;23;20028;-84
2023/01/08 10:46:24;;;;;;;5.70;2.72;;;;;;;17.12;61.26;99965.94;6190879;23;20004;-84
2023/01/08 10:48:56;;;;;;;5.07;2.40;;;;;;;17.12;61.20;99956.38;6190888;23;20009;-84
2023/01/08 10:51:24;;;;;;;4.72;2.30;;;;;;;17.12;60.88;99951.16;6190905;23;20111;-84
2023/01/08 10:53:51;;;;;;;5.25;2.17;;;;;;;17.12;60.70;99958.97;6190710;23;20071;-82
2023/01/08 10:56:39;;;;;;;4.00;2.00;;;;;;;17.13;61.09;99962.41;6217497;23;20058;-83
2023/01/08 10:59:20;;;;;;;6.07;2.35;;;;;;;17.14;60.85;99959.78;6191131;23;20024;-82
2023/01/08 11:01:47;;;;;;;4.88;1.92;;;;;;;17.16;61.06;99949.34;6217430;23;20001;-83
2023/01/08 11:04:33;;;;;;;4.43;2.13;;;;;;;17.15;60.97;99953.69;6217274;23;20028;-80
2023/01/08 11:07:01;;;;;;;5.70;2.45;;;;;;;17.18;61.06;99955.38;6217165;23;20004;-81
2023/01/08 11:09:30;;;;;;;4.85;2.08;;;;;;;17.18;60.56;99945.84;6217283;23;20333;-80
2023/01/08 11:11:56;;;;;;;6.00;2.00;;;;;;;17.19;60.63;99941.50;6217435;23;20009;-81
2023/01/08 11:14:25;;;;;;;4.97;2.10;;;;;;;17.19;60.47;99931.09;6217257;23;20008;-82
2023/01/08 11:16:52;;;;;;;3.92;1.90;;;;;;;17.19;60.63;99931.94;6217242;23;20086;-84
2023/01/08 11:19:23;;;;;;;3.42;2.00;;;;;;;17.19;60.23;99944.09;6215259;23;20380;-83
2023/01/08 11:21:56;;;;;;;4.53;2.10;;;;;;;17.19;60.44;99939.75;6217203;23;20008;-81
2023/01/08 11:24:31;;;;;;;4.85;1.80;;;;;;;17.20;60.70;99938.00;6217401;23;20030;-82
2023/01/08 11:27:03;;;;;;;2.53;1.60;;;;;;;17.20;60.49;99923.28;6217325;23;20361;-76